createdAt,value
2022-08-22T00:02:41.977Z,16.80
2022-08-22T00:03:58.393Z,15.78
2022-08-22T00:08:11.092Z,15.79
2022-08-22T00:12:25.056Z,15.82
2022-08-22T00:16:40.641Z,15.82
2022-08-22T00:20:54.407Z,15.83
2022-08-22T00:25:24.688Z,15.82
2022-08-22T00:29:39.003Z,15.82
2022-08-22T00:33:52.352Z,15.79
2022-08-22T00:38:05.366Z,15.76
2022-08-22T00:42:57.607Z,15.73
2022-08-22T00:47:23.015Z,15.66
2022-08-22T00:51:50.453Z,15.62
2022-08-22T00:56:12.176Z,15.58
2022-08-22T01:00:23.156Z,15.53
2022-08-22T01:04:54.368Z,15.51
2022-08-22T01:09:06.979Z,15.49
2022-08-22T01:13:31.316Z,15.47
2022-08-22T01:18:02.192Z,15.43
2022-08-22T01:22:47.027Z,15.41
2022-08-22T01:27:11.573Z,15.39
2022-08-22T01:31:46.683Z,15.36
2022-08-22T01:36:17.912Z,15.34
2022-08-22T01:41:00.842Z,15.32
2022-08-22T01:45:34.597Z,15.29
2022-08-22T01:49:48.246Z,15.27
2022-08-22T01:54:02.313Z,15.27
2022-08-22T01:58:19.242Z,15.27
2022-08-22T02:02:52.551Z,15.29
2022-08-22T02:07:07.934Z,15.27
2022-08-22T02:11:31.589Z,15.26
2022-08-22T02:15:51.294Z,15.23
2022-08-22T02:20:04.076Z,15.18
2022-08-22T02:24:23.835Z,15.15
2022-08-22T02:28:38.147Z,15.11
2022-08-22T02:32:58.589Z,15.06
2022-08-22T02:37:15.256Z,15.02
2022-08-22T02:41:28.688Z,14.99
2022-08-22T02:45:42.165Z,14.97
2022-08-22T02:49:59.724Z,14.94
2022-08-22T02:54:26.764Z,14.92
2022-08-22T02:58:47.026Z,14.89
2022-08-22T03:03:07.698Z,14.86
2022-08-22T03:07:26.407Z,14.83
2022-08-22T03:11:37.488Z,14.80
2022-08-22T03:15:49.430Z,14.76
2022-08-22T03:20:00.404Z,14.74
2022-08-22T03:24:13.313Z,14.73
2022-08-22T03:28:23.802Z,14.72
2022-08-22T03:32:55.920Z,14.70
2022-08-22T03:37:13.067Z,14.67
2022-08-22T03:41:47.073Z,14.65
2022-08-22T03:46:18.485Z,14.62
2022-08-22T03:50:56.381Z,14.61
2022-08-22T03:55:17.174Z,14.59
2022-08-22T03:59:49.432Z,14.56
2022-08-22T04:04:18.954Z,14.55
2022-08-22T04:08:59.802Z,14.54
2022-08-22T04:13:40.017Z,14.54
2022-08-22T04:18:33.450Z,14.51
2022-08-22T04:23:12.872Z,14.49
2022-08-22T04:27:26.072Z,14.47
2022-08-22T04:31:38.155Z,14.46
2022-08-22T04:35:56.907Z,14.43
2022-08-22T04:40:12.046Z,14.40
2022-08-22T04:44:24.480Z,14.39
2022-08-22T04:48:37.079Z,14.37
2022-08-22T04:52:53.794Z,14.34
2022-08-22T04:57:12.926Z,14.33
2022-08-22T05:01:22.593Z,14.32
2022-08-22T05:05:34.842Z,14.32
2022-08-22T05:09:46.455Z,14.29
2022-08-22T05:14:00.288Z,14.27
2022-08-22T05:18:10.353Z,14.24
2022-08-22T05:22:21.859Z,14.15
2022-08-22T05:26:31.227Z,14.08
2022-08-22T05:30:39.207Z,14.04
2022-08-22T05:34:49.122Z,14.00
2022-08-22T05:39:01.089Z,13.98
2022-08-22T05:43:10.593Z,13.97
2022-08-22T05:47:28.516Z,13.97
2022-08-22T05:51:42.030Z,13.96
2022-08-22T05:55:57.931Z,13.96
2022-08-22T06:00:11.162Z,13.96
2022-08-22T06:04:31.588Z,13.94
2022-08-22T06:08:41.365Z,13.94
2022-08-22T06:12:55.498Z,13.93
2022-08-22T06:17:11.747Z,13.95
2022-08-22T06:21:26.555Z,13.95
2022-08-22T06:25:37.853Z,13.98
2022-08-22T06:29:49.902Z,14.00
2022-08-22T06:34:04.737Z,14.00
2022-08-22T06:38:13.574Z,13.98
2022-08-22T06:42:23.378Z,13.97
2022-08-22T06:46:33.478Z,13.98
2022-08-22T06:50:42.973Z,14.02
2022-08-22T06:54:53.001Z,14.05
2022-08-22T06:59:02.824Z,14.06
2022-08-22T07:03:12.913Z,14.10
2022-08-22T07:07:23.109Z,14.12
2022-08-22T07:11:33.373Z,14.17
2022-08-22T07:15:44.406Z,14.22
2022-08-22T07:19:59.720Z,14.25
2022-08-22T07:24:08.257Z,14.28
2022-08-22T07:28:31.750Z,14.33
2022-08-22T07:32:50.878Z,14.36
2022-08-22T07:37:02.274Z,14.39
2022-08-22T07:41:15.505Z,14.45
2022-08-22T07:45:29.938Z,14.51
2022-08-22T07:49:49.663Z,14.53
2022-08-22T07:54:03.673Z,14.52
2022-08-22T07:58:13.809Z,14.54
2022-08-22T08:02:22.998Z,14.58
2022-08-22T08:06:32.570Z,14.59
2022-08-22T08:10:42.036Z,14.62
2022-08-22T08:14:54.062Z,14.67
2022-08-22T08:19:06.790Z,14.68
2022-08-22T08:23:23.406Z,14.72
2022-08-22T08:27:51.325Z,14.75
2022-08-22T08:32:00.020Z,14.80
2022-08-22T08:36:15.876Z,14.83
2022-08-22T08:40:49.204Z,14.84
2022-08-22T08:45:25.410Z,14.87
2022-08-22T08:49:55.485Z,14.92
2022-08-22T08:54:24.831Z,14.96
2022-08-22T08:58:39.270Z,15.02
2022-08-22T09:03:07.299Z,15.06
2022-08-22T09:07:50.886Z,15.11
2022-08-22T09:12:27.115Z,15.14
2022-08-22T09:16:51.579Z,15.16
2022-08-22T09:21:29.730Z,15.19
2022-08-22T09:25:41.586Z,15.24
2022-08-22T09:29:55.386Z,15.26
2022-08-22T09:34:12.581Z,15.29
2022-08-22T09:38:34.781Z,15.35
2022-08-22T09:42:49.968Z,15.39
2022-08-22T09:47:07.603Z,15.41
2022-08-22T09:51:33.104Z,15.46
2022-08-22T09:55:45.143Z,15.51
2022-08-22T10:00:22.396Z,15.53
2022-08-22T10:04:46.233Z,15.51
2022-08-22T10:09:02.621Z,15.53
2022-08-22T10:13:16.460Z,15.60
2022-08-22T10:17:32.614Z,15.65
2022-08-22T10:21:48.767Z,15.67
2022-08-22T10:25:59.535Z,15.70
2022-08-22T10:30:13.398Z,15.71
2022-08-22T10:34:26.359Z,15.73
2022-08-22T10:38:46.502Z,15.74
2022-08-22T10:42:59.365Z,15.79
2022-08-22T10:47:13.930Z,15.81
2022-08-22T10:51:38.040Z,15.83
2022-08-22T10:55:51.721Z,15.87
2022-08-22T11:00:15.560Z,15.91
2022-08-22T11:04:36.803Z,15.96
2022-08-22T11:09:14.922Z,15.99
2022-08-22T11:13:32.212Z,16.02
2022-08-22T11:18:13.198Z,16.05
2022-08-22T11:22:33.163Z,16.06
2022-08-22T11:26:46.641Z,16.08
2022-08-22T11:31:07.223Z,16.10
2022-08-22T11:35:21.228Z,16.09
2022-08-22T11:39:35.389Z,16.11
2022-08-22T11:44:01.466Z,16.11
2022-08-22T11:48:14.462Z,16.13
2022-08-22T11:52:26.887Z,16.13
2022-08-22T11:56:41.543Z,16.13
2022-08-22T12:00:54.311Z,16.15
2022-08-22T12:05:08.789Z,16.17
2022-08-22T12:09:47.720Z,16.19
2022-08-22T12:14:02.330Z,16.19
2022-08-22T12:18:38.758Z,16.19
2022-08-22T12:23:03.471Z,16.20
2022-08-22T12:27:29.304Z,16.21
2022-08-22T12:31:42.699Z,16.24
2022-08-22T12:36:01.845Z,16.26
2022-08-22T12:40:26.395Z,16.29
2022-08-22T12:44:44.626Z,16.35
2022-08-22T12:49:07.461Z,16.37
2022-08-22T12:53:46.099Z,16.39
2022-08-22T12:58:00.884Z,16.43
2022-08-22T13:02:19.210Z,16.45
2022-08-22T13:07:06.662Z,16.49
2022-08-22T13:11:22.984Z,16.55
2022-08-22T13:15:34.321Z,16.58
2022-08-22T13:19:56.221Z,16.60
2022-08-22T13:24:10.601Z,16.61
2022-08-22T13:28:20.347Z,16.63
2022-08-22T13:32:32.906Z,16.66
2022-08-22T13:36:52.126Z,16.67
2022-08-22T13:41:01.436Z,16.69
2022-08-22T13:45:15.897Z,16.73
2022-08-22T13:49:36.181Z,16.77
2022-08-22T13:53:56.709Z,16.77
2022-08-22T13:58:14.572Z,16.76
2022-08-22T14:02:39.052Z,16.77
2022-08-22T14:06:55.677Z,16.76
2022-08-22T14:11:08.493Z,16.77
2022-08-22T14:15:24.065Z,16.79
2022-08-22T14:19:58.766Z,16.81
2022-08-22T14:24:07.565Z,16.81
2022-08-22T14:28:27.680Z,16.83
2022-08-22T14:32:44.588Z,16.86
2022-08-22T14:36:58.163Z,16.89
2022-08-22T14:41:09.358Z,16.92
2022-08-22T14:45:21.913Z,16.95
2022-08-22T14:49:38.226Z,16.96
2022-08-22T14:53:45.776Z,16.98
2022-08-22T14:58:03.368Z,17.00
2022-08-22T15:02:14.699Z,17.04
2022-08-22T15:06:37.056Z,17.04
2022-08-22T15:10:45.547Z,17.07
2022-08-22T15:14:56.585Z,17.07
2022-08-22T15:19:06.731Z,17.08
2022-08-22T15:23:22.104Z,17.10
2022-08-22T15:27:32.878Z,17.10
2022-08-22T15:31:46.445Z,17.10
2022-08-22T15:35:56.309Z,17.11
2022-08-22T15:40:12.738Z,17.12
2022-08-22T15:44:33.482Z,17.14
2022-08-22T15:48:43.451Z,17.14
2022-08-22T15:53:16.499Z,17.14
2022-08-22T15:57:29.670Z,17.14
2022-08-22T16:01:45.712Z,17.16
2022-08-22T16:06:00.917Z,17.19
2022-08-22T16:10:15.211Z,17.21
2022-08-22T16:14:26.741Z,17.22
2022-08-22T16:19:12.861Z,17.24
2022-08-22T16:23:20.467Z,17.26
2022-08-22T16:27:29.664Z,17.26
2022-08-22T16:31:39.418Z,17.28
2022-08-22T16:36:26.827Z,17.27
2022-08-22T16:40:48.734Z,17.26
2022-08-22T16:44:59.479Z,17.24
2022-08-22T16:49:08.074Z,17.22
2022-08-22T16:53:45.844Z,17.20
2022-08-22T16:58:06.427Z,17.19
2022-08-22T17:02:53.396Z,17.18
2022-08-22T17:07:11.598Z,17.16
2022-08-22T17:11:30.146Z,17.14
2022-08-22T17:15:52.038Z,17.14
2022-08-22T17:20:09.257Z,17.14
2022-08-22T17:24:34.083Z,17.14
2022-08-22T17:28:49.275Z,17.14
2022-08-22T17:33:15.065Z,17.16
2022-08-22T17:37:27.458Z,17.16
2022-08-22T17:41:41.230Z,17.14
2022-08-22T17:46:13.355Z,17.13
2022-08-22T17:50:27.131Z,17.11
2022-08-22T17:54:37.190Z,17.08
2022-08-22T17:58:49.648Z,17.07
2022-08-22T18:03:02.193Z,17.06
2022-08-22T18:07:29.164Z,17.04
2022-08-22T18:11:44.408Z,17.02
2022-08-22T18:18:31.271Z,17.03
2022-08-22T18:22:47.557Z,17.02
2022-08-22T18:27:02.945Z,17.00
2022-08-22T18:31:26.415Z,16.99
2022-08-22T18:35:41.776Z,16.98
2022-08-22T18:39:55.623Z,16.97
2022-08-22T18:44:12.778Z,16.96
2022-08-22T18:48:24.570Z,16.94
2022-08-22T18:52:46.399Z,16.93
2022-08-22T18:57:07.316Z,16.93
2022-08-22T19:01:42.012Z,16.92
2022-08-22T19:06:24.429Z,16.91
2022-08-22T19:10:56.553Z,16.91
2022-08-22T19:15:26.156Z,16.90
2022-08-22T19:20:01.784Z,16.91
2022-08-22T19:24:11.565Z,16.91
2022-08-22T19:28:31.315Z,16.93
2022-08-22T19:33:04.034Z,16.94
2022-08-22T19:37:34.186Z,16.95
2022-08-22T19:41:57.216Z,16.96
2022-08-22T19:46:09.146Z,16.95
2022-08-22T19:50:31.539Z,16.96
2022-08-22T19:54:48.596Z,16.95
2022-08-22T19:59:10.030Z,16.94
2022-08-22T20:03:31.212Z,16.93
2022-08-22T20:07:51.954Z,16.92
2022-08-22T20:12:12.004Z,16.88
2022-08-22T20:16:25.529Z,16.86
2022-08-22T20:21:01.504Z,16.85
2022-08-22T20:25:20.708Z,16.84
2022-08-22T20:29:44.267Z,16.84
2022-08-22T20:33:57.927Z,16.80
2022-08-22T20:38:08.905Z,16.77
2022-08-22T20:42:18.231Z,16.76
2022-08-22T20:46:53.544Z,16.73
2022-08-22T20:51:07.685Z,16.73
2022-08-22T20:55:19.498Z,16.72
2022-08-22T20:59:37.240Z,16.72
2022-08-22T21:03:47.124Z,16.72
2022-08-22T21:08:10.269Z,16.71
2022-08-22T21:12:19.676Z,16.72
2022-08-22T21:16:32.035Z,16.73
2022-08-22T21:20:40.959Z,16.73
2022-08-22T21:24:48.660Z,16.71
2022-08-22T21:29:02.134Z,16.68
2022-08-22T21:33:09.557Z,16.65
2022-08-22T21:37:18.947Z,16.65
2022-08-22T21:41:33.424Z,16.65
2022-08-22T21:45:47.366Z,16.64
2022-08-22T21:50:08.372Z,16.64
2022-08-22T21:54:40.343Z,16.66
2022-08-22T21:58:48.318Z,16.67
2022-08-22T22:03:02.874Z,16.68
2022-08-22T22:07:10.892Z,16.69
2022-08-22T22:11:19.391Z,16.71
2022-08-22T22:15:31.939Z,16.72
2022-08-22T22:19:40.540Z,16.73
2022-08-22T22:23:51.032Z,16.72
2022-08-22T22:27:59.229Z,16.75
2022-08-22T22:32:07.836Z,16.78
2022-08-22T22:36:17.837Z,16.80
2022-08-22T22:40:26.055Z,16.79
2022-08-22T22:44:34.400Z,16.81
2022-08-22T22:48:42.254Z,16.82
2022-08-22T22:52:50.012Z,16.83
2022-08-22T22:56:58.629Z,16.83
2022-08-22T23:01:13.607Z,16.85
2022-08-22T23:05:23.245Z,16.85
2022-08-22T23:09:37.938Z,16.86
2022-08-22T23:13:48.519Z,16.85
2022-08-22T23:17:56.366Z,16.85
2022-08-22T23:22:04.626Z,16.86
2022-08-22T23:26:13.388Z,16.88
2022-08-22T23:30:21.471Z,16.87
2022-08-22T23:34:30.953Z,16.89
2022-08-22T23:38:38.447Z,16.92
2022-08-22T23:42:46.425Z,16.94
2022-08-22T23:46:54.053Z,16.94
2022-08-22T23:51:01.845Z,16.94
2022-08-22T23:55:10.903Z,16.92
2022-08-22T23:59:24.270Z,16.91
